sensor_id;sensor_type;location;lat;lon;timestamp;P1;durP1;ratioP1;P2;durP2;ratioP2
40997;SDS011;26740;45.944;12.480;2022-08-01T00:01:53;2.40;;;2.15;;
40997;SDS011;26740;45.944;12.480;2022-08-01T00:04:19;3.03;;;2.47;;
40997;SDS011;26740;45.944;12.480;2022-08-01T00:06:44;3.42;;;2.42;;
40997;SDS011;26740;45.944;12.480;2022-08-01T00:09:10;3.88;;;2.00;;
40997;SDS011;26740;45.944;12.480;2022-08-01T00:11:36;3.25;;;2.72;;
40997;SDS011;26740;45.944;12.480;2022-08-01T00:14:01;4.50;;;2.60;;
40997;SDS011;26740;45.944;12.480;2022-08-01T00:16:27;4.97;;;2.08;;
40997;SDS011;26740;45.944;12.480;2022-08-01T00:18:53;2.55;;;1.98;;
40997;SDS011;26740;45.944;12.480;2022-08-01T00:21:19;4.72;;;2.33;;
40997;SDS011;26740;45.944;12.480;2022-08-01T00:23:44;4.03;;;2.10;;
40997;SDS011;26740;45.944;12.480;2022-08-01T00:26:11;2.90;;;2.40;;
40997;SDS011;26740;45.944;12.480;2022-08-01T00:28:37;5.72;;;2.17;;
40997;SDS011;26740;45.944;12.480;2022-08-01T00:31:03;3.90;;;2.63;;
40997;SDS011;26740;45.944;12.480;2022-08-01T00:33:29;3.70;;;2.40;;
40997;SDS011;26740;45.944;12.480;2022-08-01T00:35:54;4.05;;;2.30;;
40997;SDS011;26740;45.944;12.480;2022-08-01T00:38:21;3.47;;;2.28;;
40997;SDS011;26740;45.944;12.480;2022-08-01T00:40:47;3.53;;;2.17;;
40997;SDS011;26740;45.944;12.480;2022-08-01T00:43:14;4.80;;;1.98;;
40997;SDS011;26740;45.944;12.480;2022-08-01T00:45:40;2.47;;;2.28;;
40997;SDS011;26740;45.944;12.480;2022-08-01T00:48:05;5.60;;;2.80;;
40997;SDS011;26740;45.944;12.480;2022-08-01T00:50:31;4.70;;;2.05;;
40997;SDS011;26740;45.944;12.480;2022-08-01T00:52:57;2.47;;;2.28;;
40997;SDS011;26740;45.944;12.480;2022-08-01T00:55:24;3.08;;;2.53;;
40997;SDS011;26740;45.944;12.480;2022-08-01T00:57:51;2.75;;;2.30;;
40997;SDS011;26740;45.944;12.480;2022-08-01T01:00:16;2.17;;;2.05;;
40997;SDS011;26740;45.944;12.480;2022-08-01T01:02:42;2.10;;;1.90;;
40997;SDS011;26740;45.944;12.480;2022-08-01T01:05:09;4.20;;;2.20;;
40997;SDS011;26740;45.944;12.480;2022-08-01T01:07:40;5.50;;;2.08;;
40997;SDS011;26740;45.944;12.480;2022-08-01T01:10:36;3.30;;;1.83;;
40997;SDS011;26740;45.944;12.480;2022-08-01T01:13:06;4.28;;;2.00;;
40997;SDS011;26740;45.944;12.480;2022-08-01T01:18:20;3.42;;;1.38;;
40997;SDS011;26740;45.944;12.480;2022-08-01T01:21:05;4.03;;;1.98;;
40997;SDS011;26740;45.944;12.480;2022-08-01T01:23:40;1.58;;;1.20;;
40997;SDS011;26740;45.944;12.480;2022-08-01T01:29:02;1.83;;;1.52;;
40997;SDS011;26740;45.944;12.480;2022-08-01T01:31:46;4.38;;;1.67;;
40997;SDS011;26740;45.944;12.480;2022-08-01T01:34:18;4.22;;;1.88;;
40997;SDS011;26740;45.944;12.480;2022-08-01T01:36:47;1.52;;;1.42;;
40997;SDS011;26740;45.944;12.480;2022-08-01T01:39:15;3.20;;;1.67;;
40997;SDS011;26740;45.944;12.480;2022-08-01T01:41:43;1.60;;;1.50;;
40997;SDS011;26740;45.944;12.480;2022-08-01T01:44:10;2.08;;;1.45;;
40997;SDS011;26740;45.944;12.480;2022-08-01T01:46:37;3.60;;;1.27;;
40997;SDS011;26740;45.944;12.480;2022-08-01T01:49:03;2.05;;;1.38;;
40997;SDS011;26740;45.944;12.480;2022-08-01T01:54:10;1.30;;;1.20;;
40997;SDS011;26740;45.944;12.480;2022-08-01T01:56:36;1.58;;;1.38;;
40997;SDS011;26740;45.944;12.480;2022-08-01T01:59:14;2.17;;;1.55;;
40997;SDS011;26740;45.944;12.480;2022-08-01T02:04:10;1.92;;;1.58;;
40997;SDS011;26740;45.944;12.480;2022-08-01T02:06:37;1.75;;;1.50;;
40997;SDS011;26740;45.944;12.480;2022-08-01T02:09:04;3.35;;;2.13;;
40997;SDS011;26740;45.944;12.480;2022-08-01T02:11:32;3.00;;;1.48;;
40997;SDS011;26740;45.944;12.480;2022-08-01T02:14:01;2.45;;;2.00;;
40997;SDS011;26740;45.944;12.480;2022-08-01T02:16:29;3.40;;;1.70;;
40997;SDS011;26740;45.944;12.480;2022-08-01T02:18:59;3.17;;;1.55;;
40997;SDS011;26740;45.944;12.480;2022-08-01T02:21:27;1.88;;;1.52;;
40997;SDS011;26740;45.944;12.480;2022-08-01T02:24:24;1.83;;;1.58;;
40997;SDS011;26740;45.944;12.480;2022-08-01T02:27:00;3.95;;;1.67;;
40997;SDS011;26740;45.944;12.480;2022-08-01T02:29:33;3.40;;;2.08;;
40997;SDS011;26740;45.944;12.480;2022-08-01T02:32:08;2.25;;;1.77;;
40997;SDS011;26740;45.944;12.480;2022-08-01T02:34:40;3.78;;;1.92;;
40997;SDS011;26740;45.944;12.480;2022-08-01T02:37:07;3.92;;;1.90;;
40997;SDS011;26740;45.944;12.480;2022-08-01T02:39:35;1.95;;;1.85;;
40997;SDS011;26740;45.944;12.480;2022-08-01T02:42:04;5.40;;;2.30;;
40997;SDS011;26740;45.944;12.480;2022-08-01T02:44:34;3.00;;;2.38;;
40997;SDS011;26740;45.944;12.480;2022-08-01T02:47:04;4.55;;;2.70;;
40997;SDS011;26740;45.944;12.480;2022-08-01T02:49:31;4.03;;;2.30;;
40997;SDS011;26740;45.944;12.480;2022-08-01T02:52:01;3.17;;;2.10;;
40997;SDS011;26740;45.944;12.480;2022-08-01T02:54:32;2.65;;;2.20;;
40997;SDS011;26740;45.944;12.480;2022-08-01T02:57:00;5.25;;;2.58;;
40997;SDS011;26740;45.944;12.480;2022-08-01T02:59:28;4.55;;;2.17;;
40997;SDS011;26740;45.944;12.480;2022-08-01T03:01:57;4.60;;;2.30;;
40997;SDS011;26740;45.944;12.480;2022-08-01T03:04:24;2.20;;;2.10;;
40997;SDS011;26740;45.944;12.480;2022-08-01T03:06:51;4.60;;;2.05;;
40997;SDS011;26740;45.944;12.480;2022-08-01T03:09:19;2.88;;;2.22;;
40997;SDS011;26740;45.944;12.480;2022-08-01T03:11:46;6.97;;;2.70;;
40997;SDS011;26740;45.944;12.480;2022-08-01T03:14:14;2.30;;;2.10;;
40997;SDS011;26740;45.944;12.480;2022-08-01T03:16:43;3.97;;;2.80;;
40997;SDS011;26740;45.944;12.480;2022-08-01T03:19:11;3.90;;;2.30;;
40997;SDS011;26740;45.944;12.480;2022-08-01T03:21:38;3.35;;;3.08;;
40997;SDS011;26740;45.944;12.480;2022-08-01T03:24:06;7.47;;;3.05;;
40997;SDS011;26740;45.944;12.480;2022-08-01T03:26:33;4.05;;;3.33;;
40997;SDS011;26740;45.944;12.480;2022-08-01T03:29:05;2.80;;;2.60;;
40997;SDS011;26740;45.944;12.480;2022-08-01T03:31:35;3.25;;;3.03;;
40997;SDS011;26740;45.944;12.480;2022-08-01T03:34:03;3.17;;;2.33;;
40997;SDS011;26740;45.944;12.480;2022-08-01T03:36:30;4.22;;;2.30;;
40997;SDS011;26740;45.944;12.480;2022-08-01T03:38:59;4.18;;;3.13;;
40997;SDS011;26740;45.944;12.480;2022-08-01T03:41:30;4.03;;;3.30;;
40997;SDS011;26740;45.944;12.480;2022-08-01T03:44:03;3.30;;;3.00;;
40997;SDS011;26740;45.944;12.480;2022-08-01T03:46:35;4.20;;;2.72;;
40997;SDS011;26740;45.944;12.480;2022-08-01T03:49:10;3.53;;;2.80;;
40997;SDS011;26740;45.944;12.480;2022-08-01T03:51:40;2.78;;;2.55;;
40997;SDS011;26740;45.944;12.480;2022-08-01T03:54:06;7.07;;;2.92;;
40997;SDS011;26740;45.944;12.480;2022-08-01T03:56:34;2.65;;;2.45;;
40997;SDS011;26740;45.944;12.480;2022-08-01T03:59:01;2.58;;;2.45;;
40997;SDS011;26740;45.944;12.480;2022-08-01T04:01:28;3.75;;;2.65;;
40997;SDS011;26740;45.944;12.480;2022-08-01T04:03:57;3.33;;;3.00;;
40997;SDS011;26740;45.944;12.480;2022-08-01T04:06:24;4.82;;;3.05;;
40997;SDS011;26740;45.944;12.480;2022-08-01T04:08:50;3.13;;;2.78;;
40997;SDS011;26740;45.944;12.480;2022-08-01T04:11:23;3.42;;;2.55;;
40997;SDS011;26740;45.944;12.480;2022-08-01T04:13:53;7.00;;;2.50;;
40997;SDS011;26740;45.944;12.480;2022-08-01T04:18:47;4.95;;;2.97;;
40997;SDS011;26740;45.944;12.480;2022-08-01T04:21:17;5.13;;;2.70;;
40997;SDS011;26740;45.944;12.480;2022-08-01T04:23:48;5.13;;;2.75;;
40997;SDS011;26740;45.944;12.480;2022-08-01T04:26:17;3.92;;;3.35;;
40997;SDS011;26740;45.944;12.480;2022-08-01T04:28:45;3.83;;;2.70;;
40997;SDS011;26740;45.944;12.480;2022-08-01T04:31:15;3.35;;;3.05;;
40997;SDS011;26740;45.944;12.480;2022-08-01T04:33:45;2.72;;;2.53;;
40997;SDS011;26740;45.944;12.480;2022-08-01T04:36:14;2.90;;;2.28;;
40997;SDS011;26740;45.944;12.480;2022-08-01T04:38:45;4.72;;;2.67;;
40997;SDS011;26740;45.944;12.480;2022-08-01T04:41:15;6.00;;;2.28;;
40997;SDS011;26740;45.944;12.480;2022-08-01T04:43:42;3.83;;;2.55;;
40997;SDS011;26740;45.944;12.480;2022-08-01T04:46:08;3.05;;;1.90;;
40997;SDS011;26740;45.944;12.480;2022-08-01T04:48:36;2.47;;;1.50;;
40997;SDS011;26740;45.944;12.480;2022-08-01T04:51:04;3.40;;;2.00;;
40997;SDS011;26740;45.944;12.480;2022-08-01T04:53:30;2.40;;;2.20;;
40997;SDS011;26740;45.944;12.480;2022-08-01T04:55:57;3.15;;;2.20;;
40997;SDS011;26740;45.944;12.480;2022-08-01T04:58:23;2.72;;;2.38;;
40997;SDS011;26740;45.944;12.480;2022-08-01T05:00:49;3.00;;;2.60;;
40997;SDS011;26740;45.944;12.480;2022-08-01T05:03:15;2.47;;;2.28;;
40997;SDS011;26740;45.944;12.480;2022-08-01T05:05:41;2.13;;;2.03;;
40997;SDS011;26740;45.944;12.480;2022-08-01T05:08:06;2.65;;;2.05;;
40997;SDS011;26740;45.944;12.480;2022-08-01T05:10:32;5.88;;;2.03;;
40997;SDS011;26740;45.944;12.480;2022-08-01T05:12:59;4.68;;;1.88;;
40997;SDS011;26740;45.944;12.480;2022-08-01T05:15:24;4.22;;;1.70;;
40997;SDS011;26740;45.944;12.480;2022-08-01T05:17:50;6.53;;;2.53;;
40997;SDS011;26740;45.944;12.480;2022-08-01T05:20:16;3.55;;;2.50;;
40997;SDS011;26740;45.944;12.480;2022-08-01T05:22:42;7.00;;;2.65;;
40997;SDS011;26740;45.944;12.480;2022-08-01T05:25:07;6.82;;;2.30;;
40997;SDS011;26740;45.944;12.480;2022-08-01T05:27:33;4.45;;;1.98;;
40997;SDS011;26740;45.944;12.480;2022-08-01T05:30:07;5.45;;;2.45;;
40997;SDS011;26740;45.944;12.480;2022-08-01T05:32:34;3.72;;;2.30;;
40997;SDS011;26740;45.944;12.480;2022-08-01T05:35:00;3.40;;;2.00;;
40997;SDS011;26740;45.944;12.480;2022-08-01T05:37:25;3.47;;;1.85;;
40997;SDS011;26740;45.944;12.480;2022-08-01T05:39:51;5.30;;;2.47;;
40997;SDS011;26740;45.944;12.480;2022-08-01T05:42:17;4.57;;;1.90;;
40997;SDS011;26740;45.944;12.480;2022-08-01T05:44:42;1.88;;;1.52;;
40997;SDS011;26740;45.944;12.480;2022-08-01T05:47:08;5.93;;;1.92;;
40997;SDS011;26740;45.944;12.480;2022-08-01T05:49:33;4.55;;;1.70;;
40997;SDS011;26740;45.944;12.480;2022-08-01T05:51:59;4.20;;;1.63;;
40997;SDS011;26740;45.944;12.480;2022-08-01T05:54:27;1.85;;;1.40;;
40997;SDS011;26740;45.944;12.480;2022-08-01T05:56:53;3.35;;;1.25;;
40997;SDS011;26740;45.944;12.480;2022-08-01T05:59:20;2.78;;;1.17;;
40997;SDS011;26740;45.944;12.480;2022-08-01T06:01:45;2.17;;;1.05;;
40997;SDS011;26740;45.944;12.480;2022-08-01T06:04:11;3.35;;;0.68;;
40997;SDS011;26740;45.944;12.480;2022-08-01T06:06:36;2.13;;;0.98;;
40997;SDS011;26740;45.944;12.480;2022-08-01T06:09:02;4.72;;;0.65;;
40997;SDS011;26740;45.944;12.480;2022-08-01T06:11:28;3.20;;;0.73;;
40997;SDS011;26740;45.944;12.480;2022-08-01T06:13:54;2.35;;;0.80;;
40997;SDS011;26740;45.944;12.480;2022-08-01T06:16:19;1.70;;;0.80;;
40997;SDS011;26740;45.944;12.480;2022-08-01T06:18:45;1.73;;;0.68;;
40997;SDS011;26740;45.944;12.480;2022-08-01T06:21:11;1.25;;;0.50;;
40997;SDS011;26740;45.944;12.480;2022-08-01T06:23:36;4.05;;;0.77;;
40997;SDS011;26740;45.944;12.480;2022-08-01T06:26:02;1.80;;;0.77;;
40997;SDS011;26740;45.944;12.480;2022-08-01T06:28:28;5.28;;;0.93;;
40997;SDS011;26740;45.944;12.480;2022-08-01T06:30:54;2.90;;;1.00;;
40997;SDS011;26740;45.944;12.480;2022-08-01T06:33:20;3.67;;;1.20;;
40997;SDS011;26740;45.944;12.480;2022-08-01T06:35:46;2.97;;;0.90;;
40997;SDS011;26740;45.944;12.480;2022-08-01T06:38:12;2.83;;;0.85;;
40997;SDS011;26740;45.944;12.480;2022-08-01T06:40:37;3.50;;;1.30;;
40997;SDS011;26740;45.944;12.480;2022-08-01T06:43:03;4.40;;;1.23;;
40997;SDS011;26740;45.944;12.480;2022-08-01T06:45:29;3.25;;;0.88;;
40997;SDS011;26740;45.944;12.480;2022-08-01T06:47:55;6.18;;;0.90;;
40997;SDS011;26740;45.944;12.480;2022-08-01T06:50:20;1.77;;;0.60;;
40997;SDS011;26740;45.944;12.480;2022-08-01T06:52:46;1.98;;;0.65;;
40997;SDS011;26740;45.944;12.480;2022-08-01T06:55:12;1.27;;;0.80;;
40997;SDS011;26740;45.944;12.480;2022-08-01T06:57:45;1.85;;;0.85;;
40997;SDS011;26740;45.944;12.480;2022-08-01T07:00:15;2.05;;;0.47;;
40997;SDS011;26740;45.944;12.480;2022-08-01T07:02:44;2.88;;;0.52;;
40997;SDS011;26740;45.944;12.480;2022-08-01T07:05:11;1.08;;;0.60;;
40997;SDS011;26740;45.944;12.480;2022-08-01T07:07:36;5.45;;;0.75;;
40997;SDS011;26740;45.944;12.480;2022-08-01T07:10:02;1.02;;;0.50;;
40997;SDS011;26740;45.944;12.480;2022-08-01T07:12:29;1.20;;;0.57;;
40997;SDS011;26740;45.944;12.480;2022-08-01T07:14:55;4.15;;;0.70;;
40997;SDS011;26740;45.944;12.480;2022-08-01T07:17:20;2.30;;;0.75;;
40997;SDS011;26740;45.944;12.480;2022-08-01T07:19:46;1.90;;;0.80;;
40997;SDS011;26740;45.944;12.480;2022-08-01T07:22:12;1.88;;;0.85;;
40997;SDS011;26740;45.944;12.480;2022-08-01T07:24:39;3.03;;;0.70;;
40997;SDS011;26740;45.944;12.480;2022-08-01T07:27:07;1.38;;;0.70;;
40997;SDS011;26740;45.944;12.480;2022-08-01T07:29:32;1.65;;;1.20;;
40997;SDS011;26740;45.944;12.480;2022-08-01T07:31:58;5.45;;;0.90;;
40997;SDS011;26740;45.944;12.480;2022-08-01T07:34:24;2.97;;;1.02;;
40997;SDS011;26740;45.944;12.480;2022-08-01T07:36:51;2.72;;;0.68;;
40997;SDS011;26740;45.944;12.480;2022-08-01T07:39:18;1.60;;;0.90;;
40997;SDS011;26740;45.944;12.480;2022-08-01T07:41:44;3.30;;;0.77;;
40997;SDS011;26740;45.944;12.480;2022-08-01T07:44:09;6.65;;;0.95;;
40997;SDS011;26740;45.944;12.480;2022-08-01T07:46:35;2.38;;;1.00;;
40997;SDS011;26740;45.944;12.480;2022-08-01T07:49:01;2.60;;;0.70;;
40997;SDS011;26740;45.944;12.480;2022-08-01T07:51:26;2.15;;;0.63;;
40997;SDS011;26740;45.944;12.480;2022-08-01T07:53:52;2.05;;;0.73;;
40997;SDS011;26740;45.944;12.480;2022-08-01T07:56:18;1.73;;;0.57;;
40997;SDS011;26740;45.944;12.480;2022-08-01T07:58:44;3.35;;;0.50;;
40997;SDS011;26740;45.944;12.480;2022-08-01T08:01:11;2.85;;;0.63;;
40997;SDS011;26740;45.944;12.480;2022-08-01T08:03:37;3.80;;;1.02;;
40997;SDS011;26740;45.944;12.480;2022-08-01T08:06:03;1.30;;;0.70;;
40997;SDS011;26740;45.944;12.480;2022-08-01T08:08:29;1.00;;;0.70;;
40997;SDS011;26740;45.944;12.480;2022-08-01T08:10:55;1.45;;;0.73;;
40997;SDS011;26740;45.944;12.480;2022-08-01T08:13:20;2.45;;;0.80;;
40997;SDS011;26740;45.944;12.480;2022-08-01T08:15:46;3.08;;;0.70;;
40997;SDS011;26740;45.944;12.480;2022-08-01T08:18:12;2.53;;;0.82;;
40997;SDS011;26740;45.944;12.480;2022-08-01T08:20:38;2.63;;;0.95;;
40997;SDS011;26740;45.944;12.480;2022-08-01T08:23:03;1.75;;;0.60;;
40997;SDS011;26740;45.944;12.480;2022-08-01T08:25:49;6.03;;;1.23;;
40997;SDS011;26740;45.944;12.480;2022-08-01T08:28:14;2.20;;;0.63;;
40997;SDS011;26740;45.944;12.480;2022-08-01T08:30:40;2.10;;;0.73;;
40997;SDS011;26740;45.944;12.480;2022-08-01T08:33:06;3.45;;;1.85;;
40997;SDS011;26740;45.944;12.480;2022-08-01T08:35:31;3.42;;;0.95;;
40997;SDS011;26740;45.944;12.480;2022-08-01T08:37:57;4.78;;;0.90;;
40997;SDS011;26740;45.944;12.480;2022-08-01T08:40:23;7.45;;;1.20;;
40997;SDS011;26740;45.944;12.480;2022-08-01T08:42:54;4.03;;;1.48;;
40997;SDS011;26740;45.944;12.480;2022-08-01T08:45:20;2.80;;;0.80;;
40997;SDS011;26740;45.944;12.480;2022-08-01T08:47:46;2.78;;;0.70;;
40997;SDS011;26740;45.944;12.480;2022-08-01T08:50:15;2.60;;;1.23;;
40997;SDS011;26740;45.944;12.480;2022-08-01T08:52:41;3.80;;;0.68;;
40997;SDS011;26740;45.944;12.480;2022-08-01T08:55:09;8.63;;;0.85;;
40997;SDS011;26740;45.944;12.480;2022-08-01T08:57:40;8.38;;;0.60;;
40997;SDS011;26740;45.944;12.480;2022-08-01T09:00:09;8.63;;;1.20;;
40997;SDS011;26740;45.944;12.480;2022-08-01T09:02:41;2.10;;;0.80;;
40997;SDS011;26740;45.944;12.480;2022-08-01T09:05:08;4.65;;;0.80;;
40997;SDS011;26740;45.944;12.480;2022-08-01T09:07:35;3.00;;;0.70;;
40997;SDS011;26740;45.944;12.480;2022-08-01T09:10:00;7.13;;;0.85;;
40997;SDS011;26740;45.944;12.480;2022-08-01T09:12:26;3.22;;;0.80;;
40997;SDS011;26740;45.944;12.480;2022-08-01T09:14:52;2.72;;;0.50;;
40997;SDS011;26740;45.944;12.480;2022-08-01T09:17:19;1.65;;;0.80;;
40997;SDS011;26740;45.944;12.480;2022-08-01T09:19:49;2.60;;;0.85;;
40997;SDS011;26740;45.944;12.480;2022-08-01T09:22:18;3.50;;;0.75;;
40997;SDS011;26740;45.944;12.480;2022-08-01T09:25:07;4.07;;;0.85;;
40997;SDS011;26740;45.944;12.480;2022-08-01T09:27:35;2.50;;;0.82;;
40997;SDS011;26740;45.944;12.480;2022-08-01T09:30:15;1.70;;;1.05;;
40997;SDS011;26740;45.944;12.480;2022-08-01T09:32:57;1.05;;;0.50;;
40997;SDS011;26740;45.944;12.480;2022-08-01T09:35:30;2.30;;;0.80;;
40997;SDS011;26740;45.944;12.480;2022-08-01T09:38:11;2.90;;;0.98;;
40997;SDS011;26740;45.944;12.480;2022-08-01T09:40:52;2.47;;;0.93;;
40997;SDS011;26740;45.944;12.480;2022-08-01T09:43:23;1.40;;;0.85;;
40997;SDS011;26740;45.944;12.480;2022-08-01T09:45:53;3.33;;;1.02;;
40997;SDS011;26740;45.944;12.480;2022-08-01T09:48:21;1.42;;;0.88;;
40997;SDS011;26740;45.944;12.480;2022-08-01T09:50:48;1.50;;;0.80;;
40997;SDS011;26740;45.944;12.480;2022-08-01T09:53:15;3.13;;;1.10;;
40997;SDS011;26740;45.944;12.480;2022-08-01T09:55:42;3.60;;;0.60;;
40997;SDS011;26740;45.944;12.480;2022-08-01T09:58:09;5.22;;;1.20;;
40997;SDS011;26740;45.944;12.480;2022-08-01T10:00:37;4.82;;;1.17;;
40997;SDS011;26740;45.944;12.480;2022-08-01T10:03:20;4.18;;;0.90;;
40997;SDS011;26740;45.944;12.480;2022-08-01T10:05:48;3.92;;;0.65;;
40997;SDS011;26740;45.944;12.480;2022-08-01T10:08:14;0.75;;;0.60;;
40997;SDS011;26740;45.944;12.480;2022-08-01T10:10:40;7.32;;;1.02;;
40997;SDS011;26740;45.944;12.480;2022-08-01T10:13:05;3.55;;;0.90;;
40997;SDS011;26740;45.944;12.480;2022-08-01T10:15:33;2.38;;;0.82;;
40997;SDS011;26740;45.944;12.480;2022-08-01T10:18:00;3.33;;;0.75;;
40997;SDS011;26740;45.944;12.480;2022-08-01T10:20:30;4.40;;;0.98;;
40997;SDS011;26740;45.944;12.480;2022-08-01T10:22:59;1.70;;;0.83;;
40997;SDS011;26740;45.944;12.480;2022-08-01T10:25:28;3.15;;;0.85;;
40997;SDS011;26740;45.944;12.480;2022-08-01T10:27:58;4.45;;;0.75;;
40997;SDS011;26740;45.944;12.480;2022-08-01T10:30:26;1.90;;;0.60;;
40997;SDS011;26740;45.944;12.480;2022-08-01T10:32:53;2.60;;;1.02;;
40997;SDS011;26740;45.944;12.480;2022-08-01T10:35:21;1.17;;;0.60;;
40997;SDS011;26740;45.944;12.480;2022-08-01T10:37:47;1.48;;;0.82;;
40997;SDS011;26740;45.944;12.480;2022-08-01T10:40:16;5.32;;;0.60;;
40997;SDS011;26740;45.944;12.480;2022-08-01T10:42:42;2.78;;;0.70;;
40997;SDS011;26740;45.944;12.480;2022-08-01T10:45:10;3.80;;;0.75;;
40997;SDS011;26740;45.944;12.480;2022-08-01T10:47:44;1.73;;;0.65;;
40997;SDS011;26740;45.944;12.480;2022-08-01T10:50:35;5.65;;;0.60;;
40997;SDS011;26740;45.944;12.480;2022-08-01T10:53:10;2.13;;;0.50;;
40997;SDS011;26740;45.944;12.480;2022-08-01T10:58:36;1.27;;;0.60;;
40997;SDS011;26740;45.944;12.480;2022-08-01T11:01:17;3.05;;;0.80;;
40997;SDS011;26740;45.944;12.480;2022-08-01T11:06:16;1.98;;;0.80;;
40997;SDS011;26740;45.944;12.480;2022-08-01T11:08:51;2.67;;;0.88;;
40997;SDS011;26740;45.944;12.480;2022-08-01T11:11:19;2.97;;;1.30;;
40997;SDS011;26740;45.944;12.480;2022-08-01T11:16:27;3.67;;;0.82;;
40997;SDS011;26740;45.944;12.480;2022-08-01T11:18:54;0.88;;;0.52;;
40997;SDS011;26740;45.944;12.480;2022-08-01T11:21:20;2.22;;;0.90;;
40997;SDS011;26740;45.944;12.480;2022-08-01T11:23:49;1.10;;;0.70;;
40997;SDS011;26740;45.944;12.480;2022-08-01T11:26:19;1.50;;;0.88;;
40997;SDS011;26740;45.944;12.480;2022-08-01T11:29:10;1.15;;;0.80;;
40997;SDS011;26740;45.944;12.480;2022-08-01T11:31:37;3.00;;;0.90;;
40997;SDS011;26740;45.944;12.480;2022-08-01T11:34:03;7.75;;;0.98;;
40997;SDS011;26740;45.944;12.480;2022-08-01T11:36:29;2.55;;;0.85;;
40997;SDS011;26740;45.944;12.480;2022-08-01T11:41:32;1.20;;;0.80;;
40997;SDS011;26740;45.944;12.480;2022-08-01T11:52:05;3.38;;;1.05;;
40997;SDS011;26740;45.944;12.480;2022-08-01T11:54:39;1.35;;;0.70;;
40997;SDS011;26740;45.944;12.480;2022-08-01T11:57:27;3.33;;;0.43;;
40997;SDS011;26740;45.944;12.480;2022-08-01T11:59:56;0.60;;;0.52;;
40997;SDS011;26740;45.944;12.480;2022-08-01T12:02:27;3.13;;;0.85;;
40997;SDS011;26740;45.944;12.480;2022-08-01T12:07:21;3.72;;;0.50;;
40997;SDS011;26740;45.944;12.480;2022-08-01T12:09:48;2.83;;;0.60;;
40997;SDS011;26740;45.944;12.480;2022-08-01T12:12:21;1.33;;;0.43;;
40997;SDS011;26740;45.944;12.480;2022-08-01T12:14:52;2.13;;;0.50;;
40997;SDS011;26740;45.944;12.480;2022-08-01T12:17:20;5.35;;;0.90;;
40997;SDS011;26740;45.944;12.480;2022-08-01T12:19:53;2.55;;;0.60;;
40997;SDS011;26740;45.944;12.480;2022-08-01T12:22:21;3.10;;;0.47;;
40997;SDS011;26740;45.944;12.480;2022-08-01T12:24:48;2.80;;;0.52;;
40997;SDS011;26740;45.944;12.480;2022-08-01T12:27:23;4.35;;;0.60;;
40997;SDS011;26740;45.944;12.480;2022-08-01T12:29:51;2.92;;;0.80;;
40997;SDS011;26740;45.944;12.480;2022-08-01T12:35:13;2.90;;;0.40;;
40997;SDS011;26740;45.944;12.480;2022-08-01T12:40:10;4.20;;;0.60;;
40997;SDS011;26740;45.944;12.480;2022-08-01T12:42:38;1.35;;;0.60;;
40997;SDS011;26740;45.944;12.480;2022-08-01T12:45:05;3.72;;;0.50;;
40997;SDS011;26740;45.944;12.480;2022-08-01T12:47:34;0.75;;;0.50;;
40997;SDS011;26740;45.944;12.480;2022-08-01T12:50:05;0.82;;;0.55;;
40997;SDS011;26740;45.944;12.480;2022-08-01T12:52:33;4.53;;;1.00;;
40997;SDS011;26740;45.944;12.480;2022-08-01T12:55:04;2.85;;;0.80;;
40997;SDS011;26740;45.944;12.480;2022-08-01T12:57:31;4.43;;;0.40;;
40997;SDS011;26740;45.944;12.480;2022-08-01T13:00:08;3.03;;;0.60;;
40997;SDS011;26740;45.944;12.480;2022-08-01T13:02:39;1.80;;;0.50;;
40997;SDS011;26740;45.944;12.480;2022-08-01T13:05:06;4.05;;;0.75;;
40997;SDS011;26740;45.944;12.480;2022-08-01T13:07:39;0.90;;;0.60;;
40997;SDS011;26740;45.944;12.480;2022-08-01T13:10:08;2.33;;;0.45;;
40997;SDS011;26740;45.944;12.480;2022-08-01T13:12:35;0.52;;;0.40;;
40997;SDS011;26740;45.944;12.480;2022-08-01T13:15:22;1.77;;;0.70;;
40997;SDS011;26740;45.944;12.480;2022-08-01T13:17:51;0.90;;;0.30;;
40997;SDS011;26740;45.944;12.480;2022-08-01T13:20:28;3.95;;;0.50;;
40997;SDS011;26740;45.944;12.480;2022-08-01T13:23:16;5.50;;;0.63;;
40997;SDS011;26740;45.944;12.480;2022-08-01T13:25:53;2.45;;;0.55;;
40997;SDS011;26740;45.944;12.480;2022-08-01T13:28:21;1.85;;;0.50;;
40997;SDS011;26740;45.944;12.480;2022-08-01T13:33:27;2.15;;;0.40;;
40997;SDS011;26740;45.944;12.480;2022-08-01T13:36:06;1.38;;;0.73;;
40997;SDS011;26740;45.944;12.480;2022-08-01T13:38:32;3.47;;;0.47;;
40997;SDS011;26740;45.944;12.480;2022-08-01T13:41:16;4.40;;;0.38;;
40997;SDS011;26740;45.944;12.480;2022-08-01T13:43:42;3.60;;;0.63;;
40997;SDS011;26740;45.944;12.480;2022-08-01T13:46:07;1.05;;;0.40;;
40997;SDS011;26740;45.944;12.480;2022-08-01T13:48:33;0.90;;;0.40;;
40997;SDS011;26740;45.944;12.480;2022-08-01T13:50:59;1.25;;;0.30;;
40997;SDS011;26740;45.944;12.480;2022-08-01T13:53:26;1.45;;;0.50;;
40997;SDS011;26740;45.944;12.480;2022-08-01T13:55:51;2.60;;;0.35;;
40997;SDS011;26740;45.944;12.480;2022-08-01T13:58:17;1.13;;;0.68;;
40997;SDS011;26740;45.944;12.480;2022-08-01T14:00:43;2.80;;;0.40;;
40997;SDS011;26740;45.944;12.480;2022-08-01T14:03:08;2.47;;;0.40;;
40997;SDS011;26740;45.944;12.480;2022-08-01T14:05:35;1.58;;;0.50;;
40997;SDS011;26740;45.944;12.480;2022-08-01T14:08:01;2.30;;;0.80;;
40997;SDS011;26740;45.944;12.480;2022-08-01T14:10:27;0.77;;;0.40;;
40997;SDS011;26740;45.944;12.480;2022-08-01T14:12:54;1.85;;;0.82;;
40997;SDS011;26740;45.944;12.480;2022-08-01T14:15:21;2.03;;;0.50;;
40997;SDS011;26740;45.944;12.480;2022-08-01T14:17:47;5.63;;;0.70;;
40997;SDS011;26740;45.944;12.480;2022-08-01T14:20:12;1.77;;;0.50;;
40997;SDS011;26740;45.944;12.480;2022-08-01T14:22:38;1.65;;;0.47;;
40997;SDS011;26740;45.944;12.480;2022-08-01T14:25:06;6.20;;;0.65;;
40997;SDS011;26740;45.944;12.480;2022-08-01T14:27:33;2.80;;;0.63;;
40997;SDS011;26740;45.944;12.480;2022-08-01T14:30:01;4.35;;;0.60;;
40997;SDS011;26740;45.944;12.480;2022-08-01T14:32:30;1.33;;;0.30;;
40997;SDS011;26740;45.944;12.480;2022-08-01T14:34:55;3.08;;;0.65;;
40997;SDS011;26740;45.944;12.480;2022-08-01T14:37:21;4.60;;;0.60;;
40997;SDS011;26740;45.944;12.480;2022-08-01T14:39:48;1.23;;;0.40;;
40997;SDS011;26740;45.944;12.480;2022-08-01T14:42:14;1.92;;;0.30;;
40997;SDS011;26740;45.944;12.480;2022-08-01T14:44:39;1.00;;;0.47;;
40997;SDS011;26740;45.944;12.480;2022-08-01T14:47:05;2.83;;;0.38;;
40997;SDS011;26740;45.944;12.480;2022-08-01T14:49:31;2.60;;;0.50;;
40997;SDS011;26740;45.944;12.480;2022-08-01T14:51:56;2.65;;;0.40;;
40997;SDS011;26740;45.944;12.480;2022-08-01T14:54:22;2.67;;;0.57;;
40997;SDS011;26740;45.944;12.480;2022-08-01T14:56:48;1.42;;;0.50;;
40997;SDS011;26740;45.944;12.480;2022-08-01T14:59:14;3.55;;;0.40;;
40997;SDS011;26740;45.944;12.480;2022-08-01T15:01:40;2.40;;;0.45;;
40997;SDS011;26740;45.944;12.480;2022-08-01T15:04:05;2.92;;;0.40;;
40997;SDS011;26740;45.944;12.480;2022-08-01T15:06:31;1.38;;;0.60;;
40997;SDS011;26740;45.944;12.480;2022-08-01T15:08:57;3.42;;;0.70;;
40997;SDS011;26740;45.944;12.480;2022-08-01T15:11:22;5.32;;;0.50;;
40997;SDS011;26740;45.944;12.480;2022-08-01T15:13:48;1.55;;;0.30;;
40997;SDS011;26740;45.944;12.480;2022-08-01T15:16:36;1.05;;;0.20;;
40997;SDS011;26740;45.944;12.480;2022-08-01T15:19:02;0.50;;;0.40;;
40997;SDS011;26740;45.944;12.480;2022-08-01T15:21:29;3.42;;;0.40;;
40997;SDS011;26740;45.944;12.480;2022-08-01T15:23:54;1.88;;;0.50;;